Comandante Luis Piedra Buena, Argentina
Current Conditions -  °F | °C
As of 10:00 AM on Sunday 23 Nov 2014 (Local Time) from SAWG Reporting Station
Broken Clouds Broken Clouds  
Wind Chill: 41°   Ceiling: 20000
Heat Index: 48°   Visibility: 6mi
Dew Point: 23°   Wind: 21mph
Humidity: 37%   Direction: 270°W
Pressure: 29.47"   Gusts: NA
Location:  49.98°S, 68.9°W
Report Text: SAWG 231300Z 27018KT 9999 SCT035 BKN20009/M05 Q0998
Loading
Personal Weather Stations






























Interactive Weather Map New forecast layout! Learn more

10-Day Weather Forecast

Advertisements
Track Severe Weather on mobile